Time;durP1;ratioP1;P1;durP2;ratioP2;P2;SDS_P1;SDS_P2;PMS_P1;PMS_P2;Temp;Humidity;BMP_temperature;BMP_pressure;BME280_temperature;BME280_humidity;BME280_pressure;Samples;Min_cycle;Max_cycle;Signal;HPM_P1;HPM_P2
2022/10/13 00:01:41;;;;;;;28.30;19.77;;;;;;;7.40;95.59;98383.03;6064484;29;20225;-70
2022/10/13 00:04:43;;;;;;;23.93;17.90;;;;;;;7.48;96.17;98380.00;6086728;29;20613;-70
2022/10/13 00:07:45;;;;;;;25.33;17.63;;;;;;;7.54;96.28;98384.88;6087294;29;20235;-71
2022/10/13 00:10:49;;;;;;;27.40;18.47;;;;;;;7.59;95.73;98387.22;6069716;29;20242;-70
2022/10/13 00:14:00;;;;;;;24.60;18.30;;;;;;;7.64;96.47;98383.44;6069891;29;20334;-70
2022/10/13 00:17:02;;;;;;;26.93;20.57;;;;;;;7.65;96.46;98374.63;6085941;29;20251;-70
2022/10/13 00:20:08;;;;;;;23.10;18.30;;;;;;;7.67;96.79;98383.25;6084839;29;20676;-71
2022/10/13 00:23:10;;;;;;;22.73;18.13;;;;;;;7.67;97.13;98383.25;6086615;29;20228;-70
2022/10/13 00:26:15;;;;;;;23.77;18.00;;;;;;;7.63;97.04;98381.72;6086417;29;20227;-70
2022/10/13 00:29:17;;;;;;;21.17;16.87;;;;;;;7.61;97.14;98373.09;6085732;29;20854;-70
2022/10/13 00:32:19;;;;;;;24.80;19.03;;;;;;;7.58;97.21;98368.03;6085379;29;20314;-70
2022/10/13 00:35:21;;;;;;;29.40;19.30;;;;;;;7.58;97.66;98368.03;6086362;29;20234;-70
2022/10/13 00:38:23;;;;;;;24.77;17.77;;;;;;;7.55;97.25;98362.09;6085797;29;20228;-70
2022/10/13 00:41:26;;;;;;;20.93;16.67;;;;;;;7.52;97.77;98364.88;6086509;29;20228;-70
2022/10/13 00:45:06;;;;;;;21.67;15.80;;;;;;;7.53;97.68;98363.97;6086077;29;20324;-70
2022/10/13 00:48:09;;;;;;;20.23;15.53;;;;;;;7.54;97.22;98361.25;6085487;29;20239;-70
2022/10/13 00:51:13;;;;;;;21.20;15.97;;;;;;;7.56;97.94;98358.53;6069485;29;20716;-70
2022/10/13 00:54:22;;;;;;;25.63;16.10;;;;;;;7.55;97.73;98362.09;6085808;29;20244;-70
2022/10/13 00:57:24;;;;;;;22.67;16.23;;;;;;;7.56;97.41;98362.00;6086250;29;20238;-70
2022/10/13 01:00:27;;;;;;;18.03;15.57;;;;;;;7.55;97.21;98355.06;6085550;29;20226;-70
2022/10/13 01:03:29;;;;;;;17.33;14.40;;;;;;;7.55;97.41;98359.47;6062666;29;20240;-70
2022/10/13 01:06:31;;;;;;;19.73;15.00;;;;;;;7.53;97.90;98350.81;6069111;29;20747;-71
2022/10/13 01:09:36;;;;;;;19.50;14.43;;;;;;;7.49;97.96;98351.91;6067278;29;20235;-70
2022/10/13 01:12:55;;;;;;;22.03;15.23;;;;;;;7.45;97.85;98351.28;6085481;29;20743;-70
2022/10/13 01:16:14;;;;;;;18.50;13.73;;;;;;;7.39;97.76;98349.81;6081956;29;20232;-70
2022/10/13 01:20:00;;;;;;;18.07;14.03;;;;;;;7.36;98.20;98352.66;6076067;29;20248;-70
2022/10/13 01:23:07;;;;;;;18.77;14.17;;;;;;;7.34;97.74;98346.63;6026730;29;20243;-70
2022/10/13 01:26:28;;;;;;;17.57;13.83;;;;;;;7.33;97.97;98346.72;6072395;29;20239;-70
2022/10/13 01:30:07;;;;;;;15.40;13.27;;;;;;;7.32;97.77;98340.59;6090470;29;20235;-70
2022/10/13 01:33:24;;;;;;;17.90;12.17;;;;;;;7.30;97.76;98341.63;6089557;29;20240;-70
2022/10/13 01:36:37;;;;;;;17.83;11.83;;;;;;;7.29;98.01;98340.78;6089783;29;20220;-70
2022/10/13 01:39:44;;;;;;;18.40;13.10;;;;;;;7.27;97.53;98337.41;6089701;29;20240;-70
2022/10/13 01:42:57;;;;;;;19.30;13.80;;;;;;;7.26;98.26;98332.25;6073139;29;20248;-70
2022/10/13 01:46:14;;;;;;;17.60;13.40;;;;;;;7.20;97.93;98336.03;6073540;29;20778;-70
2022/10/13 01:49:19;;;;;;;13.83;12.10;;;;;;;7.16;98.30;98334.53;6089730;29;20239;-70
2022/10/13 01:52:25;;;;;;;16.30;13.37;;;;;;;7.17;98.11;98338.84;6072768;29;20240;-70
2022/10/13 01:55:28;;;;;;;14.87;12.10;;;;;;;7.15;97.89;98332.84;6088898;29;20727;-70
2022/10/13 01:58:34;;;;;;;14.13;12.30;;;;;;;7.13;98.49;98324.19;6089665;29;20236;-70
2022/10/13 02:01:47;;;;;;;14.50;12.33;;;;;;;7.12;97.70;98332.16;6080034;29;20642;-70
2022/10/13 02:05:17;;;;;;;16.93;13.37;;;;;;;7.08;97.98;98333.28;6086107;29;20727;-70
2022/10/13 02:08:36;;;;;;;18.77;13.90;;;;;;;7.04;97.59;98327.34;6070638;29;20579;-70
2022/10/13 02:11:46;;;;;;;18.93;13.93;;;;;;;7.02;97.81;98337.06;6090522;29;20624;-70
2022/10/13 02:14:52;;;;;;;17.90;13.67;;;;;;;6.99;97.64;98322.34;6090159;29;20247;-70
2022/10/13 02:17:54;;;;;;;18.13;14.20;;;;;;;6.98;97.62;98330.31;6067066;29;20648;-70
2022/10/13 02:20:57;;;;;;;19.93;13.93;;;;;;;6.96;97.77;98327.78;6082496;29;20244;-70
2022/10/13 02:24:00;;;;;;;20.30;13.47;;;;;;;6.94;97.48;98324.38;6088600;29;20626;-70
2022/10/13 02:27:04;;;;;;;21.43;14.77;;;;;;;6.97;97.61;98323.38;6088853;29;20250;-70
2022/10/13 02:30:07;;;;;;;19.07;15.13;;;;;;;6.99;97.70;98326.75;6087401;29;20531;-70
2022/10/13 02:33:10;;;;;;;19.67;13.83;;;;;;;7.01;97.41;98325.72;6087899;29;20242;-70
2022/10/13 02:36:12;;;;;;;23.33;16.10;;;;;;;7.06;97.44;98328.13;6087937;29;20222;-70
2022/10/13 02:39:14;;;;;;;21.87;16.10;;;;;;;7.08;97.29;98326.25;6087576;29;20227;-70
2022/10/13 02:42:16;;;;;;;18.50;14.90;;;;;;;7.12;97.43;98327.75;6088428;29;20247;-70
2022/10/13 02:45:20;;;;;;;20.33;16.03;;;;;;;7.18;97.18;98330.06;6088552;29;20231;-70
2022/10/13 02:48:23;;;;;;;19.13;14.20;;;;;;;7.23;97.25;98320.13;6087883;29;20228;-70
2022/10/13 02:51:25;;;;;;;18.83;13.93;;;;;;;7.26;97.09;98325.22;6088590;29;20323;-70
2022/10/13 02:54:27;;;;;;;20.13;15.00;;;;;;;7.29;96.90;98319.75;6087943;29;20236;-70
2022/10/13 02:57:29;;;;;;;21.50;15.37;;;;;;;7.31;96.88;98317.06;6088446;29;20235;-70
2022/10/13 03:00:32;;;;;;;22.10;16.23;;;;;;;7.37;97.31;98308.84;6070912;29;20228;-70
2022/10/13 03:03:35;;;;;;;19.67;14.70;;;;;;;7.45;96.87;98311.03;6087652;29;20243;-70
2022/10/13 03:06:37;;;;;;;21.33;14.70;;;;;;;7.50;96.60;98315.06;6088113;29;20731;-70
2022/10/13 03:09:41;;;;;;;21.73;16.07;;;;;;;7.56;96.74;98322.63;6087213;29;20238;-70
2022/10/13 03:12:43;;;;;;;21.03;15.47;;;;;;;7.63;97.07;98325.72;6088418;29;20250;-70
2022/10/13 03:15:46;;;;;;;20.30;14.33;;;;;;;7.69;96.96;98318.31;6087400;29;20248;-70
2022/10/13 03:18:48;;;;;;;20.20;15.17;;;;;;;7.77;96.47;98320.53;6087489;29;20228;-70
2022/10/13 03:21:50;;;;;;;18.37;13.97;;;;;;;7.82;96.93;98312.34;6087290;29;20250;-70
2022/10/13 03:24:52;;;;;;;18.70;14.50;;;;;;;7.86;96.28;98311.25;6087450;29;20246;-70
2022/10/13 03:27:55;;;;;;;19.03;14.87;;;;;;;7.90;96.32;98316.22;6072004;29;20711;-70
2022/10/13 03:31:02;;;;;;;19.30;15.13;;;;;;;7.97;96.71;98314.09;6087227;29;20275;-70
2022/10/13 03:34:04;;;;;;;18.57;13.10;;;;;;;8.00;97.05;98309.47;6087470;29;20243;-70
2022/10/13 03:37:06;;;;;;;17.27;13.40;;;;;;;8.04;96.41;98318.88;6088514;29;20227;-70
2022/10/13 03:40:15;;;;;;;21.70;14.13;;;;;;;8.08;97.11;98312.50;6086641;29;20247;-70
2022/10/13 03:43:16;;;;;;;18.63;14.57;;;;;;;8.14;97.07;98313.91;6088013;29;20235;-70
2022/10/13 03:46:19;;;;;;;21.80;15.10;;;;;;;8.18;96.83;98310.16;6070301;29;20228;-70
2022/10/13 03:49:20;;;;;;;18.63;14.93;;;;;;;8.24;96.41;98322.09;6087417;29;20615;-70
2022/10/13 03:52:22;;;;;;;21.87;15.43;;;;;;;8.26;97.02;98315.81;6087355;29;20326;-70
2022/10/13 03:55:24;;;;;;;22.83;15.77;;;;;;;8.33;96.28;98314.50;6087369;29;20243;-70
2022/10/13 03:58:30;;;;;;;19.13;15.03;;;;;;;8.37;96.71;98312.56;6086532;29;20230;-70
2022/10/13 04:01:32;;;;;;;18.27;14.53;;;;;;;8.40;97.04;98317.59;6078132;29;20244;-70
2022/10/13 04:04:35;;;;;;;19.27;14.20;;;;;;;8.42;96.84;98310.47;6075549;29;20251;-70
2022/10/13 04:07:37;;;;;;;18.93;14.77;;;;;;;8.43;96.50;98310.38;6086768;29;20239;-70
2022/10/13 04:11:06;;;;;;;17.83;13.53;;;;;;;8.47;96.68;98313.69;6086885;29;20235;-70
2022/10/13 04:14:10;;;;;;;20.70;15.00;;;;;;;8.51;97.35;98304.66;6085718;29;20609;-70
2022/10/13 04:17:12;;;;;;;17.93;14.90;;;;;;;8.56;97.14;98307.00;6069081;29;20231;-70
2022/10/13 04:20:14;;;;;;;18.63;14.50;;;;;;;8.57;97.65;98306.91;6069503;29;20971;-70
2022/10/13 04:23:16;;;;;;;17.63;14.17;;;;;;;8.59;97.67;98293.63;6085962;29;20235;-70
2022/10/13 04:26:23;;;;;;;19.53;13.80;;;;;;;8.60;96.98;98301.44;6086427;29;20255;-70
2022/10/13 04:29:25;;;;;;;15.93;12.87;;;;;;;8.60;97.17;98300.59;6086134;29;20608;-70
2022/10/13 04:32:27;;;;;;;16.97;13.27;;;;;;;8.61;96.82;98303.13;6086387;29;20733;-70
2022/10/13 04:35:29;;;;;;;15.97;13.47;;;;;;;8.63;96.64;98303.88;6068674;29;20242;-70
2022/10/13 04:38:31;;;;;;;19.77;13.90;;;;;;;8.63;97.64;98310.94;6085905;29;20722;-70
2022/10/13 04:41:33;;;;;;;16.43;12.83;;;;;;;8.61;96.56;98308.41;6085456;29;20225;-70
2022/10/13 04:44:35;;;;;;;15.53;13.73;;;;;;;8.62;96.44;98314.50;6085336;29;20246;-70
2022/10/13 04:47:39;;;;;;;21.03;15.17;;;;;;;8.61;96.98;98315.44;6086093;29;20228;-71
2022/10/13 04:50:41;;;;;;;19.43;13.90;;;;;;;8.61;97.15;98325.97;6087554;29;20235;-70
2022/10/13 04:53:44;;;;;;;15.93;14.10;;;;;;;8.63;96.67;98322.31;6084110;29;20236;-70
2022/10/13 04:56:46;;;;;;;19.53;14.40;;;;;;;8.66;97.12;98316.84;6085211;29;20314;-70
2022/10/13 04:59:48;;;;;;;19.30;13.73;;;;;;;8.70;96.36;98312.22;6084316;29;20231;-70
2022/10/13 05:02:50;;;;;;;19.47;13.93;;;;;;;8.72;96.46;98305.94;6086647;29;20232;-70
2022/10/13 05:05:52;;;;;;;18.80;14.13;;;;;;;8.76;96.45;98314.50;6084692;29;20228;-70
2022/10/13 05:08:54;;;;;;;20.90;14.70;;;;;;;8.78;96.33;98312.63;6086242;29;20236;-71
2022/10/13 05:11:56;;;;;;;24.33;14.50;;;;;;;8.80;96.76;98313.34;6085270;29;20319;-71
2022/10/13 05:14:59;;;;;;;18.60;13.50;;;;;;;8.83;95.90;98315.78;6085783;29;20240;-71
2022/10/13 05:18:01;;;;;;;16.03;12.37;;;;;;;8.83;96.25;98323.69;6068036;29;20243;-71
2022/10/13 05:21:08;;;;;;;18.77;14.10;;;;;;;8.84;96.74;98314.84;6083861;29;20212;-70
2022/10/13 05:24:12;;;;;;;15.63;13.07;;;;;;;8.87;95.96;98317.31;6085453;29;20220;-70
2022/10/13 05:27:14;;;;;;;15.70;12.87;;;;;;;8.91;96.27;98318.78;6069247;29;20595;-71
2022/10/13 05:30:16;;;;;;;18.67;15.20;;;;;;;8.96;96.45;98321.97;6084749;29;20216;-70
2022/10/13 05:33:18;;;;;;;18.63;14.97;;;;;;;8.95;96.44;98324.72;6085645;29;20235;-71
2022/10/13 05:36:23;;;;;;;19.43;14.57;;;;;;;8.95;95.75;98320.28;6085009;29;20694;-71
2022/10/13 05:39:25;;;;;;;20.87;14.17;;;;;;;8.99;96.16;98320.91;6088342;29;20224;-70
2022/10/13 05:42:28;;;;;;;17.83;14.13;;;;;;;9.04;96.22;98330.22;6084789;29;20239;-71
2022/10/13 05:45:31;;;;;;;20.37;13.80;;;;;;;9.09;95.92;98333.41;6085950;29;20232;-71
2022/10/13 05:48:34;;;;;;;15.43;13.40;;;;;;;9.13;96.12;98334.91;6086042;29;20236;-71
2022/10/13 05:51:40;;;;;;;20.00;14.53;;;;;;;9.16;96.23;98329.44;6084845;29;20237;-70
2022/10/13 05:54:47;;;;;;;16.73;13.07;;;;;;;9.21;95.68;98329.13;6084478;29;20249;-71
2022/10/13 05:57:51;;;;;;;18.90;14.13;;;;;;;9.26;95.67;98324.44;6083321;29;20230;-71
2022/10/13 06:00:54;;;;;;;16.63;13.60;;;;;;;9.32;95.81;98328.44;6080444;29;20339;-71
2022/10/13 06:04:01;;;;;;;15.70;12.60;;;;;;;9.37;95.16;98329.84;6063915;29;20228;-71
2022/10/13 06:07:04;;;;;;;16.07;12.73;;;;;;;9.41;95.23;98330.47;6085471;29;20264;-71
2022/10/13 06:10:06;;;;;;;16.57;14.37;;;;;;;9.46;95.61;98341.59;6067829;29;20229;-71
2022/10/13 06:13:10;;;;;;;18.60;13.37;;;;;;;9.48;95.20;98347.59;6087632;29;20261;-71
2022/10/13 06:16:11;;;;;;;18.73;13.83;;;;;;;9.52;95.08;98335.91;6088562;29;20235;-71
2022/10/13 06:19:13;;;;;;;17.03;14.50;;;;;;;9.57;95.06;98341.72;6088912;29;20230;-71
2022/10/13 06:22:16;;;;;;;15.37;13.20;;;;;;;9.60;95.33;98337.09;6087995;29;20244;-71
2022/10/13 06:25:18;;;;;;;18.63;14.30;;;;;;;9.65;95.09;98336.78;6088715;29;20240;-71
2022/10/13 06:28:20;;;;;;;15.70;13.50;;;;;;;9.69;94.75;98335.63;6070434;29;20241;-71
2022/10/13 06:31:22;;;;;;;15.20;13.60;;;;;;;9.72;95.24;98337.22;6088754;29;20243;-71
2022/10/13 06:34:24;;;;;;;16.53;12.77;;;;;;;9.78;95.00;98332.38;6071107;29;20252;-71
2022/10/13 06:37:26;;;;;;;17.07;13.83;;;;;;;9.85;94.88;98335.47;6088580;29;20234;-71
2022/10/13 06:40:28;;;;;;;18.17;15.33;;;;;;;9.90;94.28;98339.47;6072161;29;20237;-71
2022/10/13 06:43:30;;;;;;;17.00;13.83;;;;;;;9.96;94.33;98341.72;6088084;29;20346;-71
2022/10/13 06:46:43;;;;;;;18.63;14.67;;;;;;;10.00;94.37;98334.44;6071067;29;20235;-71
2022/10/13 06:49:45;;;;;;;28.97;17.43;;;;;;;10.05;93.88;98329.69;6087987;29;20587;-71
2022/10/13 06:52:48;;;;;;;26.33;17.87;;;;;;;10.11;93.97;98325.78;6072037;29;20238;-71
2022/10/13 06:55:50;;;;;;;22.47;16.63;;;;;;;10.20;94.18;98327.81;6087366;29;20244;-71
2022/10/13 06:58:53;;;;;;;27.47;18.30;;;;;;;10.27;93.54;98323.84;6087019;29;20591;-71
2022/10/13 07:01:55;;;;;;;23.10;16.70;;;;;;;10.34;93.41;98333.88;6077976;29;20619;-71
2022/10/13 07:04:57;;;;;;;25.57;16.83;;;;;;;10.43;93.62;98326.25;6085389;29;20325;-71
2022/10/13 07:07:59;;;;;;;27.80;18.23;;;;;;;10.50;93.31;98335.44;6070607;29;20234;-71
2022/10/13 07:11:13;;;;;;;30.77;20.63;;;;;;;10.51;93.37;98326.56;6088742;29;20249;-71
2022/10/13 07:14:22;;;;;;;26.87;18.73;;;;;;;10.58;93.32;98336.56;6087577;29;20242;-70
2022/10/13 07:17:24;;;;;;;32.17;18.50;;;;;;;10.65;93.14;98329.09;6084235;29;20237;-71
2022/10/13 07:20:26;;;;;;;35.47;20.00;;;;;;;10.66;93.16;98320.22;6054323;29;20233;-71
2022/10/13 07:23:29;;;;;;;30.50;19.43;;;;;;;10.69;93.46;98326.13;6086763;29;20218;-71
2022/10/13 07:26:32;;;;;;;30.67;20.33;;;;;;;10.78;93.39;98327.25;6087250;29;20286;-71
2022/10/13 07:29:35;;;;;;;29.43;19.40;;;;;;;10.89;93.19;98327.34;6070432;29;20231;-71
2022/10/13 07:32:40;;;;;;;38.93;23.87;;;;;;;10.95;92.74;98324.28;6086271;29;20235;-71
2022/10/13 07:35:43;;;;;;;40.77;24.50;;;;;;;10.93;92.85;98314.78;6086441;29;20235;-71
2022/10/13 07:38:45;;;;;;;35.73;23.33;;;;;;;10.89;93.14;98313.28;6087280;29;20230;-71
2022/10/13 07:41:47;;;;;;;40.53;24.87;;;;;;;10.91;93.17;98317.53;6087424;29;20309;-71
2022/10/13 07:44:52;;;;;;;46.43;25.17;;;;;;;10.91;93.41;98316.66;6086536;29;20238;-71
2022/10/13 07:47:55;;;;;;;44.33;25.90;;;;;;;10.97;93.18;98310.97;6069411;29;20226;-71
2022/10/13 07:50:57;;;;;;;45.27;26.87;;;;;;;11.05;92.83;98317.38;6086516;29;20239;-71
2022/10/13 07:53:59;;;;;;;44.97;26.00;;;;;;;11.12;92.65;98319.56;6086766;29;20684;-71
2022/10/13 07:57:02;;;;;;;45.93;27.43;;;;;;;11.18;92.13;98319.97;6087266;29;20721;-71
2022/10/13 08:00:05;;;;;;;42.07;26.00;;;;;;;11.22;92.14;98320.59;6086214;29;20239;-71
2022/10/13 08:03:12;;;;;;;51.33;28.53;;;;;;;11.22;91.99;98318.78;6084760;29;20693;-70
2022/10/13 08:06:14;;;;;;;44.53;26.13;;;;;;;11.29;91.77;98324.47;6086377;29;20230;-70
2022/10/13 08:09:16;;;;;;;43.73;26.67;;;;;;;11.33;91.79;98323.31;6086775;29;20227;-71
2022/10/13 08:12:18;;;;;;;45.30;26.13;;;;;;;11.35;91.63;98319.59;6069057;29;20229;-70
2022/10/13 08:15:21;;;;;;;48.53;27.63;;;;;;;11.42;91.55;98325.28;6068769;29;20379;-70
2022/10/13 08:18:23;;;;;;;43.47;27.80;;;;;;;11.48;91.40;98324.00;6084689;29;20238;-70
2022/10/13 08:21:27;;;;;;;49.77;29.40;;;;;;;11.51;90.94;98313.16;6086505;29;20239;-71
2022/10/13 08:24:49;;;;;;;50.70;28.53;;;;;;;11.50;90.71;98319.41;6086760;29;20228;-71
2022/10/13 08:27:51;;;;;;;43.97;28.27;;;;;;;11.54;90.69;98312.97;6069529;29;20243;-70
2022/10/13 08:31:00;;;;;;;48.63;28.20;;;;;;;11.69;90.58;98310.00;6089742;29;20728;-69
2022/10/13 08:34:03;;;;;;;44.07;27.03;;;;;;;11.83;90.16;98312.50;6088262;29;20242;-68
2022/10/13 08:37:05;;;;;;;50.97;28.10;;;;;;;11.97;89.28;98306.19;6090612;29;20703;-68
2022/10/13 08:40:13;;;;;;;38.40;24.73;;;;;;;12.00;88.84;98305.06;6071956;29;20247;-68
2022/10/13 08:43:19;;;;;;;32.70;22.13;;;;;;;12.02;88.20;98309.31;6085779;29;20236;-68
2022/10/13 08:46:41;;;;;;;29.93;21.57;;;;;;;12.05;87.52;98319.66;6085718;29;20594;-68
2022/10/13 08:49:45;;;;;;;32.63;22.13;;;;;;;12.01;87.18;98309.41;6068241;29;20232;-67
2022/10/13 08:52:58;;;;;;;27.57;20.80;;;;;;;12.06;86.80;98308.13;6068744;29;20231;-68
2022/10/13 08:56:09;;;;;;;28.10;20.57;;;;;;;12.20;85.94;98313.19;6085113;29;20247;-68
2022/10/13 08:59:17;;;;;;;24.63;18.07;;;;;;;12.34;85.77;98309.47;6085685;29;20232;-67
2022/10/13 09:02:28;;;;;;;27.70;19.77;;;;;;;12.43;84.90;98308.78;6058709;29;20232;-68
2022/10/13 09:05:45;;;;;;;24.83;17.57;;;;;;;12.53;84.02;98307.09;6084025;29;20254;-67
2022/10/13 09:09:10;;;;;;;26.47;18.70;;;;;;;12.50;84.29;98309.97;6085463;29;20707;-68
2022/10/13 09:12:14;;;;;;;25.70;18.93;;;;;;;12.54;83.88;98306.13;6083686;29;20281;-68
2022/10/13 09:15:18;;;;;;;26.80;18.33;;;;;;;12.58;82.66;98307.56;6067563;29;20696;-68
2022/10/13 09:18:29;;;;;;;21.00;16.27;;;;;;;12.68;82.57;98310.31;6078046;29;20578;-67
2022/10/13 09:21:31;;;;;;;21.77;15.80;;;;;;;12.75;81.82;98308.91;6087333;29;20224;-69
2022/10/13 09:24:33;;;;;;;18.13;14.43;;;;;;;12.80;81.73;98314.66;6085066;29;20280;-69
2022/10/13 09:27:58;;;;;;;20.67;16.43;;;;;;;12.92;80.66;98313.69;6084467;29;20224;-68
2022/10/13 09:31:13;;;;;;;21.60;16.47;;;;;;;12.92;80.76;98311.03;6086093;29;20232;-69
2022/10/13 09:34:18;;;;;;;22.10;16.20;;;;;;;12.92;80.66;98303.09;6083903;29;20243;-68
2022/10/13 09:37:24;;;;;;;20.10;16.07;;;;;;;12.77;80.76;98303.47;6085023;29;20236;-68
2022/10/13 09:40:30;;;;;;;21.93;15.90;;;;;;;12.74;80.50;98298.41;6085227;29;20231;-68
2022/10/13 09:43:35;;;;;;;21.70;15.47;;;;;;;12.78;80.37;98305.97;6085316;29;20231;-68
2022/10/13 09:46:51;;;;;;;21.13;16.50;;;;;;;12.80;80.34;98300.56;6069687;29;20244;-68
2022/10/13 09:50:04;;;;;;;20.40;16.53;;;;;;;12.85;80.57;98301.06;6089585;29;20240;-68
2022/10/13 09:53:18;;;;;;;18.77;14.30;;;;;;;12.87;80.41;98296.50;6074577;29;20231;-68
2022/10/13 09:56:29;;;;;;;24.40;16.83;;;;;;;12.89;80.29;98299.84;6088965;29;20243;-68
2022/10/13 09:59:40;;;;;;;19.90;14.73;;;;;;;12.89;79.78;98297.19;6090291;29;20728;-68
2022/10/13 10:03:23;;;;;;;21.20;15.23;;;;;;;12.87;79.48;98302.63;6088654;29;20236;-68
2022/10/13 10:06:25;;;;;;;21.83;15.60;;;;;;;12.90;79.61;98294.41;6088031;29;20234;-68
2022/10/13 10:09:38;;;;;;;22.73;16.67;;;;;;;13.00;79.19;98293.69;6088924;29;20267;-68
2022/10/13 10:12:42;;;;;;;20.90;15.07;;;;;;;12.90;79.11;98299.72;6088378;29;20266;-70
2022/10/13 10:15:48;;;;;;;22.40;15.70;;;;;;;12.91;79.49;98300.56;6087849;29;20235;-70
2022/10/13 10:19:21;;;;;;;20.13;15.97;;;;;;;13.03;79.11;98294.28;6067791;29;20237;-70
2022/10/13 10:22:47;;;;;;;19.73;16.00;;;;;;;13.11;78.83;98301.63;6057205;29;20322;-70
2022/10/13 10:25:56;;;;;;;18.17;14.23;;;;;;;13.07;78.98;98293.09;6088279;29;20222;-70
2022/10/13 10:29:11;;;;;;;21.50;15.00;;;;;;;13.00;78.87;98294.53;6071766;29;20231;-70
2022/10/13 10:32:28;;;;;;;18.40;14.57;;;;;;;12.99;78.93;98290.19;6087644;29;20720;-71
2022/10/13 10:35:57;;;;;;;20.57;15.00;;;;;;;13.06;78.54;98287.91;6088843;29;21003;-70
2022/10/13 10:39:26;;;;;;;21.03;14.30;;;;;;;13.12;78.55;98279.44;6081246;29;20605;-70
2022/10/13 10:42:46;;;;;;;21.10;16.57;;;;;;;13.29;78.07;98284.25;6058824;29;20231;-70
2022/10/13 10:45:56;;;;;;;21.97;14.97;;;;;;;13.42;77.42;98282.28;6086985;29;20240;-70
2022/10/13 10:49:01;;;;;;;21.70;14.73;;;;;;;13.46;77.46;98281.06;6071609;29;20235;-71
2022/10/13 10:52:15;;;;;;;17.83;13.97;;;;;;;13.48;76.96;98281.75;6087933;29;20638;-70
2022/10/13 10:55:59;;;;;;;18.83;14.83;;;;;;;13.52;77.15;98274.41;6087040;29;20239;-70
2022/10/13 10:59:42;;;;;;;22.43;14.77;;;;;;;13.57;76.42;98261.63;6085724;29;20667;-71
2022/10/13 11:03:00;;;;;;;22.57;16.27;;;;;;;-144.22;100.00;60274.75;6070355;29;20589;-70
2022/10/13 11:06:05;;;;;;;20.13;15.60;;;;;;;13.77;100.00;60274.75;6083214;29;20603;-71
2022/10/13 11:09:10;;;;;;;22.37;14.97;;;;;;;13.83;100.00;60274.75;6088110;29;20324;-70
2022/10/13 11:12:18;;;;;;;19.23;13.77;;;;;;;-144.22;100.00;60274.75;6088189;29;20223;-71
2022/10/13 11:15:22;;;;;;;18.97;13.57;;;;;;;-144.22;100.00;60274.75;6088160;29;20296;-70
2022/10/13 11:19:06;;;;;;;22.83;16.40;;;;;;;-144.22;100.00;60274.75;6074123;29;20234;-71
2022/10/13 11:22:15;;;;;;;18.87;15.43;;;;;;;13.99;100.00;60274.75;6074452;29;20590;-71
2022/10/13 11:25:39;;;;;;;21.07;15.17;;;;;;;-144.22;100.00;60274.75;6070060;29;20243;-70
2022/10/13 11:28:41;;;;;;;19.30;14.70;;;;;;;-144.22;100.00;60274.75;6087177;29;20727;-71
2022/10/13 11:31:52;;;;;;;19.87;15.17;;;;;;;-144.22;100.00;60274.75;6086894;29;20700;-70
2022/10/13 11:35:18;;;;;;;21.77;15.67;;;;;;;-144.22;100.00;60274.75;6071421;29;20231;-70
2022/10/13 11:38:31;;;;;;;17.90;13.77;;;;;;;-144.22;100.00;60274.75;6086084;29;20228;-71
2022/10/13 11:41:43;;;;;;;20.60;14.80;;;;;;;-144.22;100.00;60274.75;6086969;29;20731;-71
2022/10/13 11:45:17;;;;;;;18.57;13.43;;;;;;;-144.22;100.00;60274.75;6070149;29;20228;-71
2022/10/13 11:48:47;;;;;;;19.23;14.73;;;;;;;-144.22;100.00;60274.75;6070819;29;20266;-70
2022/10/13 11:51:59;;;;;;;17.87;14.37;;;;;;;14.62;100.00;60274.75;6086858;29;20290;-71
2022/10/13 11:55:13;;;;;;;18.87;15.37;;;;;;;-144.22;100.00;60274.75;6086549;29;20239;-70
2022/10/13 11:58:26;;;;;;;17.87;13.93;;;;;;;-144.22;100.00;60274.75;6086154;29;20248;-71
2022/10/13 12:01:28;;;;;;;19.50;14.33;;;;;;;-144.22;100.00;60274.75;6079048;29;20729;-70
2022/10/13 12:04:30;;;;;;;19.90;14.37;;;;;;;-144.22;100.00;60274.75;6081498;29;20244;-71
2022/10/13 12:07:36;;;;;;;17.60;12.43;;;;;;;-144.22;100.00;60274.75;6086581;29;20232;-70
2022/10/13 12:10:38;;;;;;;18.77;14.20;;;;;;;-144.22;100.00;60274.75;6085975;29;20259;-71
2022/10/13 12:13:46;;;;;;;23.90;15.77;;;;;;;14.55;100.00;60274.75;6086197;29;20712;-70
2022/10/13 12:16:53;;;;;;;21.53;14.47;;;;;;;-144.22;100.00;60274.75;6085639;29;20326;-70
2022/10/13 12:20:16;;;;;;;21.87;16.73;;;;;;;-144.22;100.00;60274.75;6064910;29;20235;-70
2022/10/13 12:23:19;;;;;;;22.67;16.50;;;;;;;-144.22;100.00;60274.75;6085724;29;20224;-70
2022/10/13 12:26:24;;;;;;;23.10;14.70;;;;;;;-144.22;100.00;60274.75;6069966;29;20619;-71
2022/10/13 12:29:28;;;;;;;17.57;14.17;;;;;;;-144.22;100.00;60274.75;6086476;29;20716;-70
2022/10/13 12:32:47;;;;;;;20.60;14.83;;;;;;;-144.22;100.00;60274.75;6086513;29;20739;-70
2022/10/13 12:35:49;;;;;;;19.40;15.10;;;;;;;-144.22;100.00;60274.75;6068919;29;20236;-70
2022/10/13 12:38:58;;;;;;;16.93;13.23;;;;;;;-144.22;100.00;60274.75;6069038;29;20235;-70
2022/10/13 12:42:02;;;;;;;20.50;15.50;;;;;;;-144.22;100.00;60274.75;6085805;29;20327;-70
2022/10/13 12:45:05;;;;;;;21.20;13.80;;;;;;;-144.22;100.00;60274.75;6086918;29;20247;-71
2022/10/13 12:48:33;;;;;;;19.40;14.10;;;;;;;14.86;100.00;60274.75;6085259;29;20224;-70
2022/10/13 12:51:36;;;;;;;17.60;14.70;;;;;;;-144.22;100.00;60274.75;6069335;29;20605;-70
2022/10/13 12:54:46;;;;;;;18.53;14.37;;;;;;;16.55;100.00;60274.75;6084846;29;20224;-70
2022/10/13 12:57:50;;;;;;;22.33;16.87;;;;;;;-144.22;100.00;60274.75;6085298;29;20436;-70
2022/10/13 13:01:33;;;;;;;22.33;15.53;;;;;;;-144.22;100.00;60274.75;6084461;29;20331;-70
2022/10/13 13:04:35;;;;;;;19.53;15.13;;;;;;;-144.22;100.00;60274.75;6084451;29;20727;-70
2022/10/13 13:07:37;;;;;;;18.73;12.97;;;;;;;-144.22;100.00;60274.75;6085488;29;20239;-70
2022/10/13 13:11:02;;;;;;;15.90;12.57;;;;;;;21.74;100.00;60274.75;6085150;29;20231;-70
2022/10/13 13:14:32;;;;;;;17.07;12.63;;;;;;;-144.22;100.00;60274.75;6084864;29;20235;-70
2022/10/13 13:17:34;;;;;;;19.23;14.50;;;;;;;16.55;100.00;60274.75;6083801;29;20231;-70
2022/10/13 13:20:57;;;;;;;22.17;15.57;;;;;;;-144.22;100.00;60274.75;6086054;29;20318;-70
2022/10/13 13:23:59;;;;;;;19.27;14.67;;;;;;;-144.22;100.00;60274.75;6089651;29;20394;-70
2022/10/13 13:27:15;;;;;;;17.43;14.37;;;;;;;16.55;100.00;60274.75;6089714;29;20677;-70
2022/10/13 13:30:20;;;;;;;15.47;12.90;;;;;;;-144.22;100.00;60274.75;6089227;29;20223;-70
2022/10/13 13:33:23;;;;;;;20.67;15.47;;;;;;;-144.22;100.00;60274.75;6090186;29;20318;-70
2022/10/13 13:36:29;;;;;;;19.80;15.83;;;;;;;-144.22;100.00;60274.75;6089284;29;20231;-70
2022/10/13 13:39:31;;;;;;;23.23;15.17;;;;;;;188.01;100.00;60274.75;6090113;29;20232;-70
2022/10/13 13:42:33;;;;;;;19.20;15.70;;;;;;;-144.22;100.00;60274.75;6089472;29;20243;-70
2022/10/13 13:45:35;;;;;;;18.73;14.93;;;;;;;16.55;100.00;60274.75;6089448;29;20228;-70
2022/10/13 13:48:39;;;;;;;19.90;15.13;;;;;;;-144.22;100.00;60274.75;6090619;29;20238;-70
2022/10/13 13:51:41;;;;;;;20.00;14.63;;;;;;;16.55;100.00;60274.75;6089092;29;20242;-70
2022/10/13 13:54:44;;;;;;;22.73;15.00;;;;;;;-144.22;100.00;60274.75;6089414;29;20239;-70
2022/10/13 13:57:46;;;;;;;22.00;16.20;;;;;;;-144.22;100.00;60274.75;6072314;29;20607;-70
2022/10/13 14:00:48;;;;;;;19.50;16.03;;;;;;;-144.22;100.00;60274.75;6086421;29;20237;-70
2022/10/13 14:03:49;;;;;;;23.67;16.00;;;;;;;-144.22;100.00;60274.75;6072678;29;20236;-70
2022/10/13 14:06:51;;;;;;;19.03;14.93;;;;;;;-144.22;100.00;60274.75;6089373;29;20231;-70
2022/10/13 14:09:53;;;;;;;25.57;17.17;;;;;;;-144.22;100.00;60274.75;6088701;29;20239;-70
2022/10/13 14:13:01;;;;;;;20.67;16.33;;;;;;;-144.22;100.00;60274.75;6072568;29;20236;-70
2022/10/13 14:16:04;;;;;;;20.70;16.20;;;;;;;-144.22;100.00;60274.75;6088273;29;20227;-70
2022/10/13 14:19:07;;;;;;;20.77;15.33;;;;;;;-144.22;100.00;60274.75;6089248;29;20239;-70
2022/10/13 14:22:09;;;;;;;21.97;15.47;;;;;;;16.05;100.00;60274.75;6088620;29;20611;-70